Time;durP1;ratioP1;P1;durP2;ratioP2;P2;SDS_P1;SDS_P2;PMS_P1;PMS_P2;Temp;Humidity;BMP_temperature;BMP_pressure;BME280_temperature;BME280_humidity;BME280_pressure;Samples;Min_cycle;Max_cycle;Signal;HPM_P1;HPM_P2
2022/08/03 00:00:14;;;;;;;5.70;3.83;;;;;;;22.64;55.45;100934.66;852597;23;1284;-90
2022/08/03 00:00:35;;;;;;;5.13;3.80;;;;;;;22.62;55.35;100928.47;855309;23;1280;-90
2022/08/03 00:00:55;;;;;;;4.40;4.00;;;;;;;22.61;55.37;100937.34;847416;23;1237;-90
2022/08/03 00:01:17;;;;;;;4.63;3.97;;;;;;;22.58;55.46;100921.47;856466;23;1653;-90
2022/08/03 00:01:39;;;;;;;5.30;4.20;;;;;;;22.61;55.54;100932.03;856163;23;1132;-90
2022/08/03 00:02:02;;;;;;;5.68;4.20;;;;;;;22.59;55.42;100933.84;851947;23;1372;-90
2022/08/03 00:02:24;;;;;;;6.88;4.20;;;;;;;22.55;55.68;100927.72;847590;23;1186;-90
2022/08/03 00:02:45;;;;;;;7.82;4.30;;;;;;;22.58;55.81;100932.13;850945;23;1265;-90
2022/08/03 00:03:06;;;;;;;7.37;4.20;;;;;;;22.56;55.63;100923.28;847863;23;1104;-90
2022/08/03 00:03:27;;;;;;;5.63;4.15;;;;;;;22.54;55.54;100925.09;847180;23;1263;-90
2022/08/03 00:03:48;;;;;;;4.60;4.10;;;;;;;22.54;55.61;100925.09;852051;23;1259;-90
2022/08/03 00:04:10;;;;;;;4.45;4.05;;;;;;;22.54;55.73;100930.41;852391;23;1269;-89
2022/08/03 00:04:31;;;;;;;4.32;3.92;;;;;;;22.57;55.63;100931.22;848044;23;1354;-90
2022/08/03 00:04:54;;;;;;;4.13;3.70;;;;;;;22.55;55.49;100926.84;847733;23;1282;-91
2022/08/03 00:05:15;;;;;;;4.72;3.90;;;;;;;22.49;55.62;100921.66;852328;23;1358;-91
2022/08/03 00:05:36;;;;;;;5.72;4.18;;;;;;;22.49;55.61;100922.53;848471;23;1261;-91
2022/08/03 00:05:57;;;;;;;6.93;4.28;;;;;;;22.47;55.83;100924.34;851196;23;1257;-91
2022/08/03 00:06:20;;;;;;;6.85;4.25;;;;;;;22.46;55.72;100926.09;856126;23;1290;-91
2022/08/03 00:06:41;;;;;;;5.53;4.30;;;;;;;22.53;55.70;100936.63;851648;23;1353;-91
2022/08/03 00:07:05;;;;;;;5.00;4.28;;;;;;;22.50;55.73;100934.91;856162;23;1194;-91
2022/08/03 00:07:26;;;;;;;4.90;4.20;;;;;;;22.43;55.98;100925.28;847999;23;1298;-91
2022/08/03 00:07:47;;;;;;;4.60;4.05;;;;;;;22.43;55.65;100928.84;847747;23;1264;-92
2022/08/03 00:08:11;;;;;;;5.82;4.28;;;;;;;22.42;56.11;100927.09;852154;23;1385;-91
2022/08/03 00:08:32;;;;;;;5.80;4.40;;;;;;;22.43;56.08;100930.59;846790;23;1385;-91
2022/08/03 00:08:55;;;;;;;5.53;4.50;;;;;;;22.40;55.82;100928.91;852122;23;1136;-91
2022/08/03 00:09:16;;;;;;;5.30;4.50;;;;;;;22.44;56.05;100929.72;847798;23;1428;-92
2022/08/03 00:09:37;;;;;;;5.50;4.70;;;;;;;22.40;56.11;100923.59;851824;23;1175;-91
2022/08/03 00:09:58;;;;;;;5.25;4.60;;;;;;;22.46;56.20;100939.41;850991;23;1247;-91
2022/08/03 00:10:19;;;;;;;4.93;4.40;;;;;;;22.43;56.08;100923.53;848184;23;1468;-91
2022/08/03 00:10:41;;;;;;;4.68;4.20;;;;;;;22.43;56.44;100927.94;851623;23;1459;-91
2022/08/03 00:11:02;;;;;;;5.53;4.40;;;;;;;22.41;56.38;100924.44;852254;23;1288;-91
2022/08/03 00:11:25;;;;;;;6.55;4.40;;;;;;;22.45;56.42;100927.03;852305;23;1286;-92
2022/08/03 00:11:46;;;;;;;6.53;4.30;;;;;;;22.49;56.12;100932.31;847743;23;1454;-92
2022/08/03 00:12:07;;;;;;;5.40;4.20;;;;;;;22.46;56.51;100928.78;856362;23;1291;-91
2022/08/03 00:12:31;;;;;;;5.25;4.50;;;;;;;22.50;56.26;100928.72;855679;23;1326;-91
2022/08/03 00:12:55;;;;;;;5.80;4.70;;;;;;;22.49;56.23;100926.97;851557;23;1278;-91
2022/08/03 00:13:36;;;;;;;5.30;4.53;;;;;;;22.52;56.10;100930.47;847991;23;1263;-92
2022/08/03 00:13:57;;;;;;;5.90;4.43;;;;;;;22.45;56.09;100916.38;851639;23;1468;-90
2022/08/03 00:14:18;;;;;;;5.72;4.55;;;;;;;22.47;56.09;100924.34;851463;23;1213;-91
2022/08/03 00:14:40;;;;;;;5.85;4.68;;;;;;;22.43;56.11;100918.22;843444;23;1202;-91
2022/08/03 00:15:01;;;;;;;5.93;4.63;;;;;;;22.38;55.87;100914.75;851435;23;1287;-91
2022/08/03 00:15:22;;;;;;;5.68;4.40;;;;;;;22.45;56.00;100920.84;851451;23;1289;-91
2022/08/03 00:15:45;;;;;;;5.85;4.28;;;;;;;22.43;55.99;100917.31;844307;23;1198;-92
2022/08/03 00:16:06;;;;;;;5.47;4.38;;;;;;;22.40;56.11;100920.94;852147;23;1949;-92
2022/08/03 00:16:27;;;;;;;5.22;4.40;;;;;;;22.39;56.15;100916.53;848186;23;1304;-91
2022/08/03 00:16:48;;;;;;;4.78;4.25;;;;;;;22.41;56.21;100924.44;843851;23;1201;-91
2022/08/03 00:17:09;;;;;;;4.68;4.18;;;;;;;22.38;56.06;100919.22;847922;23;1200;-92
2022/08/03 00:17:30;;;;;;;5.68;4.15;;;;;;;22.31;56.03;100921.09;852086;23;1163;-91
2022/08/03 00:17:51;;;;;;;6.60;4.35;;;;;;;22.36;56.25;100923.69;842913;23;1224;-91
2022/08/03 00:18:12;;;;;;;6.03;4.25;;;;;;;22.29;56.16;100910.50;847778;23;1209;-92
2022/08/03 00:18:33;;;;;;;6.10;4.45;;;;;;;22.35;56.17;100925.44;847072;23;1310;-92
2022/08/03 00:18:54;;;;;;;6.60;4.50;;;;;;;22.35;56.00;100928.09;847833;23;1193;-91
2022/08/03 00:19:15;;;;;;;6.35;4.60;;;;;;;22.35;56.13;100925.44;856554;23;1300;-91
2022/08/03 00:19:36;;;;;;;5.55;4.22;;;;;;;22.37;56.20;100931.59;854430;23;1151;-91
2022/08/03 00:19:57;;;;;;;4.47;4.07;;;;;;;22.33;56.29;100927.28;843202;23;1158;-91
2022/08/03 00:20:18;;;;;;;5.17;4.20;;;;;;;22.32;56.27;100922.88;847664;23;1317;-91
2022/08/03 00:20:39;;;;;;;5.20;4.13;;;;;;;22.33;56.46;100921.97;850459;23;1341;-92
2022/08/03 00:20:59;;;;;;;5.50;4.20;;;;;;;22.29;56.45;100915.81;859632;23;1121;-91
2022/08/03 00:21:20;;;;;;;5.10;4.20;;;;;;;22.33;56.25;100927.28;853999;23;1308;-91
2022/08/03 00:21:41;;;;;;;5.43;4.38;;;;;;;22.28;56.42;100913.19;838943;23;1313;-91
2022/08/03 00:22:02;;;;;;;5.68;4.60;;;;;;;22.26;56.53;100915.00;839504;23;1291;-92
2022/08/03 00:22:26;;;;;;;5.10;4.50;;;;;;;22.25;56.51;100924.75;843941;23;1287;-91
2022/08/03 00:22:48;;;;;;;5.10;4.60;;;;;;;22.28;56.60;100922.03;847401;23;1350;-91
2022/08/03 00:23:09;;;;;;;7.13;4.55;;;;;;;22.27;56.26;100922.06;855919;23;1346;-92
2022/08/03 00:23:30;;;;;;;7.15;4.40;;;;;;;22.23;56.30;100909.69;851916;23;1385;-91
2022/08/03 00:23:51;;;;;;;6.80;4.30;;;;;;;22.25;56.48;100918.53;854896;23;1170;-90
2022/08/03 00:24:12;;;;;;;4.50;4.10;;;;;;;22.24;56.61;100919.44;852306;23;1132;-91
2022/08/03 00:24:35;;;;;;;5.97;4.40;;;;;;;22.24;56.58;100919.44;847024;23;1234;-91
2022/08/03 00:24:56;;;;;;;6.65;4.47;;;;;;;22.25;56.54;100916.75;851852;23;1136;-91
2022/08/03 00:25:18;;;;;;;6.30;4.30;;;;;;;22.17;56.72;100900.94;852058;23;1200;-92
2022/08/03 00:25:39;;;;;;;4.90;4.40;;;;;;;22.21;56.66;100914.16;847752;23;1293;-91
2022/08/03 00:26:00;;;;;;;4.85;4.35;;;;;;;22.28;56.84;100921.16;848291;23;1228;-91
2022/08/03 00:26:21;;;;;;;5.07;4.50;;;;;;;22.21;56.63;100906.19;843921;23;1298;-91
2022/08/03 00:26:42;;;;;;;5.80;4.40;;;;;;;22.26;56.91;100915.84;851891;23;1338;-91
2022/08/03 00:27:05;;;;;;;5.70;4.30;;;;;;;22.26;56.57;100917.66;856098;23;1268;-91
2022/08/03 00:27:26;;;;;;;5.70;4.40;;;;;;;22.25;56.72;100921.19;856391;23;1314;-91
2022/08/03 00:27:47;;;;;;;5.07;4.57;;;;;;;22.21;56.65;100914.16;847315;23;1307;-91
2022/08/03 00:28:11;;;;;;;5.10;4.60;;;;;;;22.25;56.88;100915.88;848109;23;1281;-92
2022/08/03 00:28:32;;;;;;;5.13;4.57;;;;;;;22.18;57.03;100905.34;851807;23;1264;-90
2022/08/03 00:28:53;;;;;;;5.88;4.47;;;;;;;22.25;56.93;100914.09;850944;23;1222;-91
2022/08/03 00:29:14;;;;;;;6.03;4.40;;;;;;;22.25;56.87;100913.22;848103;23;1581;-91
2022/08/03 00:29:35;;;;;;;5.35;4.22;;;;;;;22.25;56.83;100918.53;850344;23;1228;-91
2022/08/03 00:29:56;;;;;;;5.93;4.50;;;;;;;22.24;56.93;100908.81;851394;23;1182;-91
2022/08/03 00:30:17;;;;;;;5.70;4.40;;;;;;;22.18;56.78;100901.81;848169;23;1215;-91
2022/08/03 00:30:41;;;;;;;6.55;4.50;;;;;;;22.20;57.14;100908.00;855060;23;1284;-91
2022/08/03 00:31:03;;;;;;;6.40;4.75;;;;;;;22.21;57.07;100911.50;860084;23;1240;-91
2022/08/03 00:31:24;;;;;;;6.50;4.80;;;;;;;22.20;56.88;100908.00;859582;23;1208;-91
2022/08/03 00:31:45;;;;;;;4.97;4.47;;;;;;;22.16;56.81;100907.16;856050;23;1167;-89
2022/08/03 00:32:06;;;;;;;4.50;4.10;;;;;;;22.17;57.06;100900.94;852084;23;1292;-91
2022/08/03 00:32:27;;;;;;;4.72;4.32;;;;;;;22.25;56.84;100918.53;840611;23;1304;-91
2022/08/03 00:32:50;;;;;;;5.40;4.70;;;;;;;22.19;57.12;100904.44;851531;23;1337;-91
2022/08/03 00:33:11;;;;;;;5.33;4.63;;;;;;;22.22;56.99;100905.28;848690;23;1284;-91
2022/08/03 00:33:32;;;;;;;6.10;4.60;;;;;;;22.24;56.98;100911.47;852102;23;1258;-90
2022/08/03 00:33:55;;;;;;;5.75;4.40;;;;;;;22.26;57.19;100907.03;851756;23;1521;-90
2022/08/03 00:34:16;;;;;;;5.60;4.22;;;;;;;22.25;57.03;100908.78;852390;23;1197;-90
2022/08/03 00:34:37;;;;;;;4.75;4.20;;;;;;;22.25;56.96;100907.91;851779;23;1191;-90
2022/08/03 00:34:58;;;;;;;5.03;3.92;;;;;;;22.27;57.03;100908.78;846827;23;1169;-90
2022/08/03 00:35:19;;;;;;;5.72;4.10;;;;;;;22.24;57.13;100900.84;856100;23;1247;-91
2022/08/03 00:35:40;;;;;;;5.95;4.40;;;;;;;22.25;57.07;100902.59;854978;23;1439;-91
2022/08/03 00:36:01;;;;;;;5.20;4.70;;;;;;;22.26;57.11;100909.69;847501;23;1917;-90
2022/08/03 00:36:22;;;;;;;4.95;4.45;;;;;;;22.22;56.90;100906.16;851449;23;1167;-91
2022/08/03 00:36:45;;;;;;;4.75;4.25;;;;;;;22.27;56.97;100912.31;851750;23;1192;-90
2022/08/03 00:37:06;;;;;;;5.72;4.20;;;;;;;22.21;56.96;100903.53;847033;23;1328;-90
2022/08/03 00:37:27;;;;;;;6.17;4.50;;;;;;;22.18;56.97;100902.69;843633;23;1152;-90
2022/08/03 00:37:51;;;;;;;5.88;4.65;;;;;;;22.19;56.98;100907.09;847726;23;1238;-91
2022/08/03 00:38:12;;;;;;;5.20;4.70;;;;;;;22.17;56.72;100905.38;851301;23;1110;-91
2022/08/03 00:38:35;;;;;;;5.03;4.53;;;;;;;22.19;56.92;100909.75;847449;23;1405;-91
2022/08/03 00:38:56;;;;;;;4.70;4.30;;;;;;;22.17;57.05;100911.56;855686;23;1408;-91
2022/08/03 00:39:16;;;;;;;4.73;4.23;;;;;;;22.15;56.89;100904.53;848366;23;1144;-91
2022/08/03 00:39:42;;;;;;;4.95;4.10;;;;;;;22.19;56.85;100909.75;855722;23;1241;-90
2022/08/03 00:40:03;;;;;;;5.60;4.20;;;;;;;22.13;56.95;100899.22;856273;23;1208;-91
2022/08/03 00:40:26;;;;;;;5.38;4.30;;;;;;;22.11;56.85;100895.75;856154;23;1116;-91
2022/08/03 00:40:47;;;;;;;5.60;4.35;;;;;;;22.08;56.94;100895.81;855010;23;1303;-91
2022/08/03 00:41:08;;;;;;;5.47;4.47;;;;;;;22.16;57.03;100908.94;851393;23;1275;-91
2022/08/03 00:41:29;;;;;;;8.73;4.47;;;;;;;22.06;56.96;100892.28;852285;23;1180;-92
2022/08/03 00:41:50;;;;;;;9.07;4.68;;;;;;;22.11;57.20;100901.06;855499;23;1257;-91
2022/08/03 00:42:11;;;;;;;8.85;4.55;;;;;;;22.06;57.04;100900.25;847982;23;1260;-91
2022/08/03 00:42:31;;;;;;;7.53;4.57;;;;;;;22.09;56.98;100900.22;839234;23;1229;-91
2022/08/03 00:42:54;;;;;;;6.90;4.50;;;;;;;22.13;57.24;100898.38;851534;23;1182;-91
2022/08/03 00:43:15;;;;;;;7.20;4.47;;;;;;;22.06;56.97;100902.91;848319;23;1248;-91
2022/08/03 00:43:36;;;;;;;5.00;4.50;;;;;;;22.06;56.81;100905.56;846882;23;1198;-90
2022/08/03 00:43:57;;;;;;;4.90;4.40;;;;;;;22.07;57.03;100903.78;850890;23;1397;-91
2022/08/03 00:44:20;;;;;;;5.22;4.50;;;;;;;22.05;57.26;100904.69;844078;23;1335;-90
2022/08/03 00:44:45;;;;;;;5.00;4.40;;;;;;;22.04;57.25;100902.06;843577;23;1359;-91
2022/08/03 00:45:06;;;;;;;5.30;4.40;;;;;;;22.01;57.15;100894.16;847671;23;1407;-92
2022/08/03 00:45:30;;;;;;;5.53;4.20;;;;;;;22.00;57.38;100903.03;852141;23;1403;-91
2022/08/03 00:45:51;;;;;;;6.00;4.40;;;;;;;22.01;57.34;100899.47;851559;23;1376;-91
2022/08/03 00:46:12;;;;;;;5.75;4.30;;;;;;;21.99;57.45;100904.81;852036;23;1285;-91
2022/08/03 00:46:35;;;;;;;4.65;4.25;;;;;;;21.99;57.33;100896.84;851777;23;1137;-91
2022/08/03 00:46:56;;;;;;;4.75;4.35;;;;;;;22.03;57.24;100908.28;846981;23;1228;-91
2022/08/03 00:47:17;;;;;;;5.20;4.50;;;;;;;21.99;57.49;100895.94;847819;23;1380;-91
2022/08/03 00:47:38;;;;;;;5.13;4.25;;;;;;;21.99;57.40;100902.16;841722;23;1216;-91
2022/08/03 00:48:00;;;;;;;5.00;4.18;;;;;;;22.04;57.28;100912.69;851694;23;1447;-92
2022/08/03 00:48:21;;;;;;;5.28;4.20;;;;;;;21.98;57.19;100894.19;847898;23;1367;-91
2022/08/03 00:48:43;;;;;;;6.50;4.40;;;;;;;22.00;57.09;100900.38;851587;23;1240;-91
2022/08/03 00:49:04;;;;;;;7.00;4.50;;;;;;;21.96;57.23;100896.00;847745;23;1168;-91
2022/08/03 00:49:25;;;;;;;5.93;4.50;;;;;;;21.98;57.46;100899.50;855877;23;1336;-91
2022/08/03 00:49:46;;;;;;;5.03;4.40;;;;;;;22.00;57.50;100908.34;854060;23;1323;-92
2022/08/03 00:50:09;;;;;;;5.25;4.28;;;;;;;22.03;57.32;100913.59;848119;23;1267;-91
2022/08/03 00:50:38;;;;;;;5.85;4.25;;;;;;;21.99;57.43;100901.25;855933;23;1319;-91
2022/08/03 00:50:59;;;;;;;5.32;4.20;;;;;;;21.98;57.35;100904.81;847809;23;1187;-91
2022/08/03 00:51:21;;;;;;;5.30;4.20;;;;;;;21.96;57.41;100896.00;851699;23;1380;-91
2022/08/03 00:51:42;;;;;;;5.80;4.30;;;;;;;22.01;57.60;100910.97;843308;23;1326;-91
2022/08/03 00:52:05;;;;;;;7.10;4.22;;;;;;;22.00;57.54;100914.53;847910;23;1397;-92
2022/08/03 00:52:26;;;;;;;7.57;4.47;;;;;;;22.00;57.46;100903.91;848283;23;1243;-91
2022/08/03 00:52:50;;;;;;;6.57;4.68;;;;;;;21.94;57.52;100897.84;852051;23;1116;-92
2022/08/03 00:53:16;;;;;;;5.80;4.47;;;;;;;21.95;57.33;100900.44;852057;23;1165;-91
2022/08/03 00:53:37;;;;;;;4.88;4.20;;;;;;;21.97;57.34;100903.06;851896;23;1350;-92
2022/08/03 00:53:58;;;;;;;4.65;4.00;;;;;;;21.95;57.17;100899.56;855846;23;1310;-92
2022/08/03 00:54:20;;;;;;;5.03;4.10;;;;;;;21.97;57.14;100906.63;844076;23;1144;-91
2022/08/03 00:54:41;;;;;;;5.90;4.10;;;;;;;21.98;57.20;100910.13;847432;23;1231;-91
2022/08/03 00:55:03;;;;;;;6.20;4.20;;;;;;;21.90;57.41;100897.88;848059;23;1203;-90
2022/08/03 00:55:26;;;;;;;7.85;4.15;;;;;;;21.93;57.44;100896.09;843852;23;1194;-91
2022/08/03 00:55:50;;;;;;;7.72;4.40;;;;;;;21.96;57.42;100906.63;843782;23;1242;-91
2022/08/03 00:56:15;;;;;;;6.50;4.55;;;;;;;21.99;57.37;100917.19;847713;23;1912;-91
2022/08/03 00:56:37;;;;;;;5.30;4.80;;;;;;;21.98;57.33;100908.38;846644;23;1372;-91
2022/08/03 00:56:58;;;;;;;5.85;4.55;;;;;;;21.93;57.38;100896.09;851043;23;1326;-90
2022/08/03 00:57:19;;;;;;;6.30;4.70;;;;;;;21.91;57.75;100904.97;851455;23;1204;-91
2022/08/03 00:57:42;;;;;;;6.53;4.30;;;;;;;21.96;57.51;100902.22;855882;23;1287;-91
2022/08/03 00:58:05;;;;;;;5.68;4.28;;;;;;;21.87;57.69;100895.28;856142;23;1282;-91
2022/08/03 00:58:26;;;;;;;5.70;4.30;;;;;;;21.88;57.45;100899.69;855946;23;1287;-90
2022/08/03 00:58:48;;;;;;;4.90;4.40;;;;;;;21.90;57.62;100903.19;851867;23;1251;-91
2022/08/03 00:59:10;;;;;;;4.95;4.45;;;;;;;21.94;57.74;100909.31;844246;23;1169;-91
2022/08/03 00:59:31;;;;;;;5.25;4.75;;;;;;;21.87;57.78;100894.38;842448;23;1197;-92
2022/08/03 00:59:54;;;;;;;5.13;4.63;;;;;;;21.89;57.69;100898.78;847427;23;1430;-91
2022/08/03 01:00:18;;;;;;;5.00;4.47;;;;;;;21.90;57.85;100904.97;843012;23;1295;-91
2022/08/03 01:00:40;;;;;;;4.95;4.13;;;;;;;21.89;57.78;100900.56;855286;23;1266;-91
2022/08/03 01:01:00;;;;;;;5.03;4.22;;;;;;;21.87;57.76;100903.25;851104;23;1268;-91
2022/08/03 01:01:22;;;;;;;5.95;4.65;;;;;;;21.85;57.63;100898.84;843921;23;1190;-91
2022/08/03 01:01:43;;;;;;;5.50;4.57;;;;;;;21.84;57.86;100895.34;851733;23;1407;-91
2022/08/03 01:02:05;;;;;;;5.13;4.43;;;;;;;21.83;57.90;100892.69;843454;23;1197;-91
2022/08/03 01:02:27;;;;;;;4.70;4.20;;;;;;;21.81;58.00;100897.16;847605;23;1295;-91
2022/08/03 01:02:49;;;;;;;5.63;4.22;;;;;;;21.85;57.91;100897.09;847341;23;1416;-91
2022/08/03 01:03:11;;;;;;;5.93;4.20;;;;;;;21.80;57.71;100890.97;848263;23;1362;-92
2022/08/03 01:03:31;;;;;;;6.22;4.30;;;;;;;21.81;57.86;100895.38;851703;23;1373;-91
2022/08/03 01:03:55;;;;;;;5.15;4.30;;;;;;;21.81;58.02;100903.34;855881;23;1245;-91
2022/08/03 01:04:16;;;;;;;5.72;4.30;;;;;;;21.76;57.87;100890.16;855954;23;1338;-91
2022/08/03 01:04:40;;;;;;;5.18;4.15;;;;;;;21.77;58.11;100891.88;855816;23;1256;-91
2022/08/03 01:05:02;;;;;;;5.10;4.50;;;;;;;21.77;57.85;100896.34;856242;23;1364;-91
2022/08/03 01:05:25;;;;;;;5.38;4.88;;;;;;;21.77;57.87;100897.19;860506;23;1313;-92
2022/08/03 01:05:56;;;;;;;5.45;4.95;;;;;;;21.78;58.21;100900.75;851503;23;1251;-91
2022/08/03 01:06:22;;;;;;;5.03;4.50;;;;;;;21.80;58.24;100901.59;847520;23;1521;-91
2022/08/03 01:06:52;;;;;;;6.82;4.47;;;;;;;21.74;58.18;100897.25;847751;23;1264;-90
2022/08/03 01:07:35;;;;;;;6.95;4.70;;;;;;;21.79;58.12;100899.84;856204;23;1304;-91
2022/08/03 01:08:15;;;;;;;6.40;4.40;;;;;;;21.79;58.34;100899.84;852414;23;1211;-91
2022/08/03 01:08:39;;;;;;;5.93;4.60;;;;;;;21.79;58.42;100899.84;851962;23;1253;-91
2022/08/03 01:09:18;;;;;;;5.78;4.80;;;;;;;21.81;58.41;100898.03;848134;23;1332;-91
2022/08/03 01:10:00;;;;;;;7.80;4.90;;;;;;;21.74;58.79;100893.72;847354;23;1358;-91
2022/08/03 01:10:56;;;;;;;5.32;4.50;;;;;;;21.84;58.54;100902.41;845409;23;1371;-91
2022/08/03 01:11:42;;;;;;;6.20;4.70;;;;;;;21.85;58.61;100907.72;848222;23;1374;-91
2022/08/03 01:12:09;;;;;;;6.93;5.00;;;;;;;21.83;58.58;100901.53;852409;23;1311;-91
2022/08/03 01:12:52;;;;;;;5.53;4.60;;;;;;;21.82;58.43;100899.78;852297;23;1227;-90
2022/08/03 01:13:27;;;;;;;5.25;4.57;;;;;;;21.87;58.38;100905.00;856426;23;1265;-91
2022/08/03 01:14:08;;;;;;;5.28;4.78;;;;;;;21.83;58.10;100895.34;848210;23;1365;-91
2022/08/03 01:14:49;;;;;;;7.45;4.90;;;;;;;21.81;58.12;100898.03;851765;23;1149;-91
2022/08/03 01:15:40;;;;;;;6.35;4.95;;;;;;;21.85;58.13;100898.84;847505;23;1276;-91
2022/08/03 01:16:25;;;;;;;4.90;4.40;;;;;;;21.84;58.12;100898.00;843432;23;1899;-90
2022/08/03 01:16:48;;;;;;;6.00;4.50;;;;;;;21.77;58.25;100891.03;847510;23;1479;-91
2022/08/03 01:17:16;;;;;;;8.75;4.70;;;;;;;21.75;58.15;100883.06;852007;23;1248;-92
2022/08/03 01:18:04;;;;;;;8.23;5.00;;;;;;;21.83;58.01;100900.66;856910;23;1222;-91
2022/08/03 01:18:40;;;;;;;5.15;4.57;;;;;;;21.81;58.37;100892.72;848068;23;1297;-90
2022/08/03 01:19:24;;;;;;;6.15;4.50;;;;;;;21.85;58.21;100899.75;851543;23;1342;-91
2022/08/03 01:19:55;;;;;;;6.50;4.78;;;;;;;21.84;58.14;100898.00;834954;23;1346;-90
2022/08/03 01:20:19;;;;;;;7.75;4.65;;;;;;;21.81;58.21;100895.38;848051;23;1319;-91
2022/08/03 01:20:46;;;;;;;7.50;4.60;;;;;;;21.80;58.19;100895.41;847383;23;1136;-91
2022/08/03 01:21:16;;;;;;;6.53;4.47;;;;;;;21.78;58.04;100892.78;851860;23;1269;-91
2022/08/03 01:21:57;;;;;;;5.15;4.65;;;;;;;21.74;58.02;100880.44;840707;23;1420;-92
2022/08/03 01:22:37;;;;;;;5.25;4.75;;;;;;;21.78;58.43;100893.63;841961;23;1305;-91
2022/08/03 01:23:07;;;;;;;6.22;4.50;;;;;;;21.78;58.44;100898.09;843564;23;1272;-91
2022/08/03 01:23:59;;;;;;;5.18;4.32;;;;;;;21.75;58.59;100898.13;847626;23;1140;-92
2022/08/03 01:24:41;;;;;;;5.00;4.50;;;;;;;21.77;58.53;100904.31;851666;23;1379;-91
2022/08/03 01:25:15;;;;;;;5.80;4.80;;;;;;;21.74;58.31;100893.72;851870;23;1379;-91
2022/08/03 01:25:54;;;;;;;5.32;4.55;;;;;;;21.76;58.53;100902.56;856070;23;1454;-91
2022/08/03 01:26:36;;;;;;;6.47;4.50;;;;;;;21.74;58.52;100897.25;852607;23;1230;-91
2022/08/03 01:27:11;;;;;;;5.75;4.32;;;;;;;21.74;58.59;100896.38;856161;23;1300;-91
2022/08/03 01:27:57;;;;;;;6.50;4.45;;;;;;;21.73;58.61;100898.16;851728;23;1226;-91
2022/08/03 01:28:56;;;;;;;4.80;4.40;;;;;;;21.70;58.68;100894.69;848219;23;1361;-92
2022/08/03 01:29:45;;;;;;;5.20;4.70;;;;;;;21.69;58.54;100893.81;843655;23;1403;-92
2022/08/03 01:30:08;;;;;;;5.45;4.50;;;;;;;21.68;58.49;100907.13;855983;23;1393;-92
2022/08/03 01:30:32;;;;;;;7.60;4.30;;;;;;;21.64;58.65;100896.53;851785;23;1346;-92
2022/08/03 01:30:57;;;;;;;7.55;4.20;;;;;;;21.66;58.63;100901.81;851068;23;1334;-92
2022/08/03 01:31:23;;;;;;;4.90;4.40;;;;;;;21.62;58.50;100898.34;847431;23;1180;-92
2022/08/03 01:31:51;;;;;;;7.60;4.70;;;;;;;21.60;58.79;100889.53;863643;22;1213;-92
2022/08/03 01:32:34;;;;;;;7.20;4.10;;;;;;;21.63;58.85;100894.78;856103;23;1305;-92
2022/08/03 01:33:01;;;;;;;5.75;4.53;;;;;;;21.62;58.75;100894.81;847556;23;1247;-92
2022/08/03 01:33:33;;;;;;;6.07;4.78;;;;;;;21.58;58.65;100891.31;856048;23;1409;-92
2022/08/03 01:34:01;;;;;;;5.25;4.50;;;;;;;21.59;58.80;100901.03;855900;23;1341;-92
2022/08/03 01:34:47;;;;;;;5.18;4.68;;;;;;;21.55;58.82;100891.38;854771;23;1235;-91
2022/08/03 01:35:15;;;;;;;7.75;4.97;;;;;;;21.55;58.82;100890.50;859778;23;1268;-91
2022/08/03 01:35:45;;;;;;;6.07;4.70;;;;;;;21.51;58.71;100884.34;848587;23;1396;-92
2022/08/03 01:36:47;;;;;;;5.93;4.68;;;;;;;21.59;58.68;100897.50;848593;23;1952;-91
2022/08/03 01:37:11;;;;;;;7.20;4.60;;;;;;;21.51;58.68;100894.97;855371;23;1280;-92
2022/08/03 01:37:39;;;;;;;7.72;4.82;;;;;;;21.52;58.68;100885.25;864345;22;1415;-91
2022/08/03 01:38:04;;;;;;;5.30;4.80;;;;;;;21.57;58.80;100899.34;848843;23;1104;-91
2022/08/03 01:38:33;;;;;;;5.35;4.85;;;;;;;21.54;58.61;100894.06;852049;23;1327;-92
2022/08/03 01:38:59;;;;;;;6.93;5.28;;;;;;;21.53;58.73;100893.19;855795;23;1278;-92
2022/08/03 01:39:22;;;;;;;6.85;5.28;;;;;;;21.45;58.74;100881.78;850941;23;1349;-92
2022/08/03 01:39:45;;;;;;;5.70;5.03;;;;;;;21.48;58.66;100884.38;850853;23;1272;-92
2022/08/03 01:40:10;;;;;;;5.60;4.90;;;;;;;21.54;58.84;100889.63;847822;23;1227;-92
2022/08/03 01:40:35;;;;;;;6.20;4.80;;;;;;;21.52;58.67;100891.44;847459;23;1256;-92
2022/08/03 01:41:01;;;;;;;6.30;4.70;;;;;;;21.46;58.98;100879.09;855904;23;1297;-92
2022/08/03 01:41:33;;;;;;;5.72;4.80;;;;;;;21.52;58.74;100891.44;855938;23;1248;-92
2022/08/03 01:42:04;;;;;;;5.00;4.40;;;;;;;21.53;58.94;100893.19;859504;23;1241;-91
2022/08/03 01:42:28;;;;;;;4.97;4.30;;;;;;;21.51;58.94;100892.31;851833;23;1366;-92
2022/08/03 01:42:50;;;;;;;6.70;4.53;;;;;;;21.49;58.99;100886.16;847477;23;1398;-91
2022/08/03 01:43:15;;;;;;;7.43;4.70;;;;;;;21.47;58.87;100883.50;847365;23;1323;-92
2022/08/03 01:43:38;;;;;;;6.53;4.70;;;;;;;21.49;59.04;100889.72;851654;23;1356;-91
2022/08/03 01:44:02;;;;;;;5.60;4.40;;;;;;;21.53;58.92;100898.50;843268;23;1099;-92
2022/08/03 01:44:24;;;;;;;5.65;4.38;;;;;;;21.50;59.07;100885.25;855594;23;1271;-92
2022/08/03 01:44:47;;;;;;;5.22;4.72;;;;;;;21.48;58.69;100890.56;851294;23;1326;-92
2022/08/03 01:45:13;;;;;;;6.30;4.75;;;;;;;21.48;59.10;100884.38;843876;23;1265;-91
2022/08/03 01:45:36;;;;;;;5.80;4.80;;;;;;;21.50;59.09;100895.88;843764;23;1284;-92
2022/08/03 01:45:58;;;;;;;5.32;4.80;;;;;;;21.47;59.12;100888.78;851354;23;1219;-92
2022/08/03 01:46:20;;;;;;;5.25;4.63;;;;;;;21.44;59.26;100888.84;851683;23;1310;-92
2022/08/03 01:46:43;;;;;;;7.10;4.80;;;;;;;21.48;59.18;100889.69;855933;23;1185;-92
2022/08/03 01:47:06;;;;;;;6.95;4.70;;;;;;;21.46;59.19;100880.88;856382;23;1262;-92
2022/08/03 01:47:29;;;;;;;9.90;4.90;;;;;;;21.47;59.02;100893.25;852453;23;1210;-92
2022/08/03 01:47:51;;;;;;;10.60;5.15;;;;;;;21.49;58.99;100889.72;855543;23;1227;-92
2022/08/03 01:48:16;;;;;;;10.80;5.20;;;;;;;21.47;58.99;100890.59;856019;23;1377;-92
2022/08/03 01:48:41;;;;;;;5.88;5.00;;;;;;;21.45;59.01;100884.44;846924;23;1381;-91
2022/08/03 01:49:03;;;;;;;4.90;4.40;;;;;;;21.45;58.93;100889.75;847532;23;1381;-91
2022/08/03 01:49:26;;;;;;;5.28;4.50;;;;;;;21.46;58.96;100892.34;847478;23;1219;-92
2022/08/03 01:49:48;;;;;;;5.25;4.68;;;;;;;21.47;59.02;100890.59;851183;23;1262;-91
2022/08/03 01:50:12;;;;;;;5.57;4.82;;;;;;;21.42;59.09;100890.66;856071;23;1307;-92
2022/08/03 01:50:40;;;;;;;5.65;5.00;;;;;;;21.42;59.27;100890.66;855534;23;1168;-92
2022/08/03 01:51:02;;;;;;;5.65;5.05;;;;;;;21.44;58.99;100891.50;855912;23;1203;-92
2022/08/03 01:51:23;;;;;;;5.30;4.80;;;;;;;21.44;59.31;100893.28;847480;23;1315;-91
2022/08/03 01:51:47;;;;;;;5.88;4.80;;;;;;;21.42;59.10;100884.47;847012;23;1462;-91
2022/08/03 01:52:10;;;;;;;5.47;4.60;;;;;;;21.39;59.15;100885.38;847897;23;1533;-91
2022/08/03 01:52:32;;;;;;;5.32;4.28;;;;;;;21.41;59.34;100888.03;843870;23;1347;-92
2022/08/03 01:52:57;;;;;;;5.00;4.30;;;;;;;21.39;59.13;100880.06;843580;23;1408;-91
2022/08/03 01:53:20;;;;;;;5.97;4.40;;;;;;;21.37;59.12;100880.13;847141;23;1204;-92
2022/08/03 01:53:44;;;;;;;5.68;4.30;;;;;;;21.37;59.28;100882.78;847217;23;1293;-92
2022/08/03 01:54:08;;;;;;;6.10;4.60;;;;;;;21.37;59.24;100882.78;852078;23;1257;-92
2022/08/03 01:54:33;;;;;;;5.18;4.68;;;;;;;21.32;59.30;100873.09;852106;23;1184;-92
2022/08/03 01:54:55;;;;;;;5.82;4.60;;;;;;;21.36;59.27;100880.13;851665;23;1340;-91
2022/08/03 01:55:19;;;;;;;7.47;4.70;;;;;;;21.33;59.42;100880.19;848618;23;1196;-92
2022/08/03 01:55:41;;;;;;;6.70;4.60;;;;;;;21.36;59.15;100889.00;847968;23;1384;-91
2022/08/03 01:56:05;;;;;;;5.70;4.35;;;;;;;21.34;59.25;100885.47;843594;23;1962;-91
2022/08/03 01:56:28;;;;;;;5.30;4.40;;;;;;;21.34;59.34;100887.25;847992;23;1410;-91
2022/08/03 01:56:51;;;;;;;5.80;4.50;;;;;;;21.25;59.32;100875.00;856012;23;1331;-91
2022/08/03 01:57:13;;;;;;;5.10;4.53;;;;;;;21.30;59.41;100880.22;844172;23;1287;-91
2022/08/03 01:57:37;;;;;;;5.97;4.63;;;;;;;21.29;59.29;100879.38;848173;23;1357;-91
2022/08/03 01:58:02;;;;;;;5.65;4.57;;;;;;;21.27;59.50;100880.28;847798;23;1358;-92
2022/08/03 01:58:25;;;;;;;6.93;4.30;;;;;;;21.32;59.35;100889.94;852104;23;1240;-92
2022/08/03 01:58:50;;;;;;;5.68;4.30;;;;;;;21.31;59.44;100888.19;851746;23;1236;-92